Latest Weather Observations for Kuitpo

IDS60901

Issued at 9:01 pm CDT Thursday 18 December 2014 (issued every 10 minutes, with the page automatically refreshed every 10 minutes)

About weather observations | Map of Adelaide area stations | Latest observations for Adelaide area | Other Formats
Station Details ID: 023887 Name: KUITPO FOREST RESERVE Lat: -35.17 Lon: 138.68 Height: 365.0 m
Data from the previous 72 hours. | See also: Recent months at Kuitpo
Date/Time
CDT
Tmp

°C
App
Tmp
°C
Dew
Point
°C
Rel
Hum
%
Delta-T

°C
Wind Press
QNH
hPa
Press
MSL
hPa
Rain
since
9 am
mm
Dir
 
Spd
km/h
Gust
km/h
Spd
kts
Gust
kts
18/09:00pm 12.8 9.2 5.2 60 3.6 S 13 22 7 12 1015.4 1014.4 0.0
18/08:30pm 13.5 9.8 6.1 61 3.6 SSW 15 26 8 14 1015.2 1014.2 0.0
18/08:00pm 14.3 10.3 6.6 60 3.8 SSW 17 24 9 13 1014.9 1013.9 0.0
18/07:30pm 15.2 10.9 7.2 59 4.0 SSW 19 28 10 15 1014.5 1013.5 0.0
18/07:00pm 17.0 13.3 7.9 55 4.7 SSW 17 28 9 15 1014.0 1012.9 0.0
18/06:30pm 16.7 12.7 8.1 57 4.4 SSW 19 30 10 16 1013.7 1012.6 0.0
18/06:00pm 17.9 13.1 8.7 55 4.8 SW 24 41 13 22 1013.2 1012.2 0.0
18/05:30pm 18.8 14.3 8.7 52 5.4 WSW 22 35 12 19 1012.8 1011.8 0.0
18/05:00pm 18.3 13.2 9.1 55 4.9 WSW 26 37 14 20 1012.7 1011.7 0.0
18/04:30pm 18.0 13.9 10.1 60 4.3 WSW 22 39 12 21 1012.4 1011.4 0.0
18/04:00pm 18.0 13.0 9.6 58 4.5 WSW 26 41 14 22 1012.3 1011.3 0.0
18/03:30pm 19.4 14.6 10.4 56 4.9 WSW 26 39 14 21 1012.2 1011.2 0.0
18/03:00pm 19.7 14.8 9.9 53 5.3 WSW 26 46 14 25 1011.8 1010.7 0.0
18/02:37pm 19.2 13.9 9.7 54 5.1 WSW 28 46 15 25 1011.7 1010.6 0.0
18/02:30pm 19.1 15.1 10.6 58 4.7 WSW 22 37 12 20 1011.7 1010.6 0.0
18/02:00pm 18.8 14.5 10.9 60 4.4 WSW 24 37 13 20 1011.7 1010.6 0.0
18/01:30pm 17.8 12.8 11.1 65 3.7 WSW 28 41 15 22 1011.6 1010.5 0.0
18/01:00pm 18.6 13.6 10.9 61 4.2 WSW 28 48 15 26 1011.4 1010.3 0.0
18/12:32pm 16.6 11.9 11.9 74 2.6 WSW 28 46 15 25 1011.3 1010.2 0.0
18/12:30pm 16.9 12.2 12.0 73 2.7 WSW 28 44 15 24 1011.3 1010.2 0.0
18/12:00pm 17.6 11.0 10.0 61 4.1 WSW 35 57 19 31 1010.9 1009.8 0.0
18/11:30am 16.9 11.2 11.2 69 3.1 W 32 52 17 28 1011.0 1009.9 0.0
18/11:08am 17.3 11.4 9.2 59 4.3 W 30 48 16 26 1010.7 1009.6 0.0
18/11:00am 16.1 11.2 11.3 73 2.6 W 28 44 15 24 1010.8 1009.7 0.0
18/10:38am 16.0 10.5 10.5 70 3.0 W 30 48 16 26 1010.6 1009.5 0.0
18/10:30am 16.5 11.3 10.4 67 3.3 W 28 43 15 23 1010.6 1009.5 0.0
18/10:00am 16.2 11.5 10.7 70 3.0 W 26 41 14 22 1010.3 1009.3 0.0
18/09:40am 15.2 9.2 10.0 71 2.8 W 32 52 17 28 1010.0 1009.0 0.0
18/09:30am 15.2 9.6 10.2 72 2.7 WNW 30 43 16 23 1010.0 1009.0 0.0
18/09:00am 15.2 10.5 10.8 75 2.4 WNW 26 46 14 25 1009.7 1008.7 0.0
18/08:58am 15.1 10.0 10.5 74 2.5 WNW 28 46 15 25 1009.6 1008.6 0.0
18/08:30am 14.9 10.4 9.9 72 2.7 WNW 24 43 13 23 1009.4 1008.3 0.0
18/08:00am 15.0 10.6 10.4 74 2.5 W 24 41 13 22 1009.0 1007.9 0.0
18/07:30am 14.4 11.2 9.8 74 2.4 W 17 33 9 18 1008.6 1007.5 0.0
18/07:00am 13.2 9.6 10.0 81 1.7 WNW 19 28 10 15 1008.5 1007.4 0.0
18/06:30am 12.4 8.8 10.0 85 1.3 W 19 26 10 14 1008.4 1007.3 0.0
18/06:00am 12.3 9.0 9.7 84 1.4 WNW 17 26 9 14 1008.2 1007.1 0.0
18/05:30am 11.8 9.2 9.2 84 1.3 W 13 22 7 12 1007.8 1006.7 0.0
18/05:00am 11.5 9.5 10.1 91 0.7 WNW 11 17 6 9 1007.3 1006.3 0.0
18/04:30am 11.4 9.3 9.8 90 0.8 W 11 15 6 8 1007.2 1006.2 0.0
18/04:00am 11.2 9.0 9.3 88 1.0 W 11 15 6 8 1007.1 1006.1 0.0
18/03:30am 11.0 9.2 9.6 91 0.7 W 9 13 5 7 1006.9 1005.8 0.0
18/03:00am 10.8 9.0 9.4 91 0.7 W 9 11 5 6 1006.9 1005.8 0.0
18/02:30am 11.0 9.6 9.6 91 0.7 N 7 9 4 5 1006.7 1005.6 0.0
18/02:00am 10.8 9.4 9.4 91 0.7 NNE 7 7 4 4 1006.9 1005.8 0.0
18/01:30am 11.2 10.0 9.5 89 0.9 NE 6 7 3 4 1007.2 1006.2 0.0
18/01:00am 11.2 9.7 9.3 88 1.0 NE 7 9 4 5 1007.4 1006.4 0.0
18/12:30am 11.5 10.3 9.4 87 1.1 ENE 6 7 3 4 1007.9 1006.8 0.0
18/12:00am 11.7 10.4 9.3 85 1.2 SE 6 9 3 5 1008.0 1006.9 0.0
 
Date/Time
CDT
Tmp

°C
App
Tmp
°C
Dew
Point
°C
Rel
Hum
%
Delta-T

°C
Wind Press
QNH
hPa
Press
MSL
hPa
Rain
since
9 am
mm
Dir
 
Spd
km/h
Gust
km/h
Spd
kts
Gust
kts
17/11:30pm 12.0 10.8 9.4 84 1.3 SSE 6 7 3 4 1008.3 1007.2 0.0
17/11:00pm 11.9 10.4 9.1 83 1.4 SSE 7 9 4 5 1008.4 1007.3 0.0
17/10:30pm 11.9 10.3 8.9 82 1.5 SSE 7 11 4 6 1008.4 1007.3 0.0
17/10:00pm 12.3 10.7 8.6 78 1.9 SSE 7 9 4 5 1008.3 1007.2 0.0
17/09:30pm 13.1 11.3 8.0 71 2.6 SE 7 9 4 5 1008.2 1007.1 0.0
17/09:00pm 14.1 11.3 6.9 62 3.6 WSW 11 17 6 9 1007.8 1006.7 0.0
17/08:30pm 15.2 11.9 6.2 55 4.4 WSW 13 19 7 10 1007.4 1006.4 0.0
17/08:00pm 17.0 14.1 6.5 50 5.3 WSW 11 17 6 9 1007.2 1006.2 0.0
17/07:30pm 17.7 14.5 5.3 44 6.1 SW 11 15 6 8 1007.0 1005.9 0.0
17/07:00pm 18.4 15.0 5.9 44 6.3 WSW 13 17 7 9 1007.0 1005.9 0.0
17/06:30pm 19.2 15.9 6.3 43 6.6 WSW 13 20 7 11 1007.1 1006.1 0.0
17/06:00pm 19.4 15.5 5.5 40 7.0 SW 15 20 8 11 1007.0 1005.9 0.0
17/05:30pm 19.3 15.1 3.9 36 7.5 W 15 22 8 12 1007.2 1006.2 0.0
17/05:00pm 19.7 14.9 4.6 37 7.4 WSW 19 33 10 18 1007.3 1006.3 0.0
17/04:30pm 19.6 15.3 5.3 39 7.1 WSW 17 26 9 14 1007.8 1006.7 0.0
17/04:00pm 19.2 15.7 5.3 40 6.9 W 13 24 7 13 1007.9 1006.8 0.0
17/03:30pm 18.6 14.8 4.0 38 7.1 W 13 24 7 13 1007.9 1006.8 0.0
17/03:00pm 18.4 14.6 3.8 38 7.0 W 13 28 7 15 1008.3 1007.2 0.0
17/02:30pm 18.6 13.7 4.0 38 7.1 WSW 19 28 10 15 1008.5 1007.4 0.0
17/02:00pm 19.1 14.3 4.8 39 7.0 WSW 19 35 10 19 1008.7 1007.6 0.0
17/01:30pm 17.5 12.7 4.8 43 6.2 WNW 19 33 10 18 1008.9 1007.8 0.0
17/01:00pm 16.6 11.8 4.9 46 5.7 WNW 19 35 10 19 1009.2 1008.1 0.0
17/12:30pm 17.3 13.7 4.9 44 6.0 WNW 13 24 7 13 1009.4 1008.3 0.0
17/12:00pm 16.7 12.7 5.0 46 5.7 W 15 30 8 16 1009.5 1008.5 0.0
17/11:30am 16.8 12.7 6.3 50 5.2 WNW 17 24 9 13 1009.9 1008.9 0.0
17/11:00am 16.1 12.7 5.7 50 5.1 WSW 13 20 7 11 1009.9 1008.9 0.0
17/10:30am 15.0 11.6 5.8 54 4.5 W 13 24 7 13 1010.1 1009.1 0.0
17/10:00am 15.3 12.1 5.2 51 4.9 W 11 15 6 8 1010.1 1009.1 0.0
17/09:30am 15.0 12.0 5.8 54 4.5 W 11 17 6 9 1010.2 1009.2 0.0
17/09:00am 13.8 10.8 3.9 51 4.6 W 9 13 5 7 1010.6 1009.5 0.0
17/08:30am 13.6 11.6 6.9 64 3.3 WSW 7 11 4 6 1010.3 1009.3 0.0
17/08:00am 13.0 11.6 7.2 68 2.9 SSW 4 7 2 4 1010.3 1009.3 0.0
17/07:30am 12.1 10.2 6.8 70 2.6 SW 6 9 3 5 1010.2 1009.2 0.0
17/07:00am 11.3 9.4 6.8 74 2.2 SSW 6 7 3 4 1010.1 1009.1 0.0
17/06:30am 9.8 7.8 6.9 82 1.4 SSW 7 7 4 4 1009.6 1008.6 0.0
17/06:00am 9.2 7.3 6.6 84 1.2 SSW 6 7 3 4 1009.2 1008.1 0.0
17/05:30am 9.0 8.2 6.6 85 1.1 CALM 0 0 0 0 1008.8 1007.7 0.0
17/05:00am 9.8 7.9 6.9 82 1.4 SSW 6 7 3 4 1008.3 1007.2 0.0
17/04:30am 9.7 7.9 7.0 83 1.3 SSW 6 7 3 4 1008.3 1007.2 0.0
17/04:00am 10.1 8.1 7.0 81 1.5 SSW 7 7 4 4 1008.0 1006.9 0.0
17/03:30am 10.3 8.3 7.0 80 1.6 SW 7 9 4 5 1008.0 1006.9 0.0
17/03:00am 9.9 7.7 6.2 78 1.8 SW 7 7 4 4 1007.9 1006.8 0.0
17/02:30am 9.7 7.5 6.1 78 1.7 S 7 11 4 6 1007.8 1006.7 0.0
17/02:00am 9.5 6.9 5.9 78 1.7 SSW 9 11 5 6 1008.0 1006.9 0.0
17/01:30am 9.8 7.2 6.0 77 1.8 SSW 9 15 5 8 1008.0 1006.9 0.0
17/01:00am 9.9 6.9 6.2 78 1.8 SW 11 13 6 7 1008.3 1007.2 0.0
17/12:30am 10.5 7.2 6.5 76 1.9 SW 13 17 7 9 1008.6 1007.5 0.0
17/12:00am 10.5 7.2 6.5 76 1.9 SW 13 19 7 10 1008.6 1007.5 0.0
 
Date/Time
CDT
Tmp

°C
App
Tmp
°C
Dew
Point
°C
Rel
Hum
%
Delta-T

°C
Wind Press
QNH
hPa
Press
MSL
hPa
Rain
since
9 am
mm
Dir
 
Spd
km/h
Gust
km/h
Spd
kts
Gust
kts
16/11:30pm 10.0 7.0 6.2 77 1.8 SSW 11 19 6 10 1008.7 1007.6 0.0
16/11:00pm 10.8 7.5 6.4 74 2.1 SSW 13 20 7 11 1008.7 1007.6 0.0
16/10:30pm 11.3 7.5 5.8 69 2.6 SSW 15 22 8 12 1008.7 1007.6 0.0
16/10:00pm 11.5 8.3 5.2 65 3.0 SW 11 19 6 10 1008.7 1007.6 0.0
16/09:30pm 12.1 8.9 5.3 63 3.2 SSW 11 19 6 10 1008.4 1007.3 0.0
16/09:00pm 13.1 8.5 5.5 60 3.6 SSW 19 28 10 15 1008.1 1007.0 0.0
16/08:30pm 14.2 9.7 6.1 58 4.0 SSW 19 30 10 16 1007.4 1006.4 0.0
16/08:00pm 15.0 10.9 6.0 55 4.4 WSW 17 30 9 16 1007.0 1005.9 0.0
16/07:30pm 15.2 10.0 5.7 53 4.6 WSW 22 33 12 18 1006.6 1005.5 0.0
16/07:00pm 15.4 10.6 7.4 59 4.0 WSW 22 35 12 19 1006.3 1005.2 0.0
16/06:30pm 15.8 10.0 8.1 60 4.0 WSW 28 43 15 23 1005.8 1004.7 0.0
16/06:00pm 16.7 11.3 9.4 62 3.9 WSW 28 50 15 27 1005.2 1004.1 0.0
16/05:30pm 16.7 10.4 8.9 60 4.1 WSW 32 50 17 27 1005.0 1003.9 0.0
16/05:02pm 18.4 12.0 8.7 53 5.1 WSW 32 54 17 29 1004.7 1003.5 0.0
16/05:00pm 18.3 12.3 8.8 54 5.0 WSW 30 46 16 25 1004.7 1003.5 0.0
16/04:30pm 18.5 12.4 8.2 51 5.4 WSW 30 56 16 30 1004.8 1003.7 0.0
16/04:00pm 18.8 11.5 8.7 52 5.3 WSW 37 59 20 32 1004.4 1003.3 0.0
16/03:30pm 18.6 11.7 7.4 48 5.8 WSW 33 57 18 31 1004.2 1003.1 0.0
16/03:00pm 18.6 9.8 5.5 42 6.5 WSW 41 69 22 37 1003.9 1002.8 0.0
16/02:30pm 19.3 11.5 8.3 49 5.8 W 39 59 21 32 1003.5 1002.4 0.0
16/02:00pm 18.7 10.5 8.1 50 5.5 W 41 65 22 35 1003.0 1001.9 0.0
16/01:30pm 18.8 11.2 9.0 53 5.2 W 39 63 21 34 1002.8 1001.7 0.0
16/01:00pm 16.5 10.8 11.0 70 3.0 WSW 32 52 17 28 1002.6 1001.5 0.0
16/12:30pm 15.4 8.9 11.8 79 2.0 W 37 61 20 33 1002.4 1001.3 0.0
16/12:09pm 19.6 14.7 12.6 64 4.0 WNW 30 48 16 26 1002.0 1000.8 0.0
16/12:00pm 18.4 13.2 11.7 65 3.8 WNW 30 46 16 25 1002.0 1000.8 0.0
16/11:30am 17.8 13.4 11.8 68 3.4 W 26 46 14 25 1002.3 1001.1 0.0
16/11:00am 17.5 12.2 11.1 66 3.5 W 30 50 16 27 1001.9 1000.7 0.0
16/10:30am 18.1 12.5 11.4 65 3.7 WNW 32 50 17 27 1001.5 1000.4 0.0
16/10:09am 17.7 12.8 11.3 66 3.5 W 28 46 15 25 1001.2 1000.1 0.0
16/10:00am 18.2 14.6 13.1 72 2.9 WNW 24 43 13 23 1001.0 999.9 0.0
16/09:40am 17.6 13.1 12.7 73 2.8 WNW 28 48 15 26 1001.1 1000.0 0.0
16/09:30am 17.2 13.2 12.9 76 2.5 WNW 26 44 14 24 1001.2 1000.1 0.0
16/09:01am 17.0 12.8 13.5 80 2.0 WNW 28 48 15 26 1001.4 1000.3 0.0
16/09:00am 17.0 13.2 13.5 80 2.0 WNW 26 48 14 26 1001.3 1000.2 0.0
16/08:53am 16.6 11.9 13.1 80 2.0 WNW 30 48 16 26 1001.3 1000.2 0.0
16/08:30am 15.6 12.6 14.8 95 0.5 WNW 24 39 13 21 1001.0 999.9 0.0
16/08:00am 15.3 11.9 14.8 97 0.3 WNW 26 43 14 23 1000.8 999.7 0.0
16/07:30am 14.2 12.1 13.6 96 0.3 WNW 17 26 9 14 1000.5 999.4 0.0
16/07:00am 13.7 11.6 12.4 92 0.7 WNW 15 20 8 11 1000.1 999.0 0.0
16/06:30am 14.0 11.2 11.2 83 1.5 NW 17 26 9 14 999.8 998.6 0.0
16/06:00am 13.6 11.2 10.0 79 1.9 WNW 13 20 7 11 999.3 998.1 0.0
16/05:30am 13.7 10.8 9.6 76 2.2 NNW 15 22 8 12 998.9 997.7 0.0
16/05:00am 12.7 9.8 9.7 82 1.6 NNW 15 20 8 11 998.7 997.6 0.0
16/04:30am 12.9 10.1 10.1 83 1.5 NNW 15 17 8 9 999.3 998.1 0.0
16/04:00am 13.5 11.0 9.7 78 2.0 NW 13 19 7 10 999.6 998.4 0.0
16/03:30am 13.7 10.7 9.4 75 2.3 NW 15 20 8 11 1000.2 999.1 0.0
16/03:00am 12.5 10.1 10.2 86 1.2 NW 13 19 7 10 1000.0 998.9 0.0
16/02:30am 11.0 10.0 11.0 100 0.0 NE 7 9 4 5 1000.0 998.9 0.0
16/02:00am 11.0 9.6 11.0 100 0.0 NNE 9 11 5 6 1000.4 999.3 0.0
16/01:30am 11.2 9.9 11.2 100 0.0 ENE 9 13 5 7 1000.9 999.8 0.0
16/01:00am 11.2 9.5 11.2 100 0.0 ENE 11 13 6 7 1001.5 1000.4 0.0
16/12:30am 11.2 9.4 11.0 99 0.1 ENE 11 13 6 7 1001.9 1000.7 0.0
16/12:00am 11.3 9.2 11.0 98 0.2 ESE 13 15 7 8 1002.2 1001.0 0.0
 
Date/Time
CDT
Tmp

°C
App
Tmp
°C
Dew
Point
°C
Rel
Hum
%
Delta-T

°C
Wind Press
QNH
hPa
Press
MSL
hPa
Rain
since
9 am
mm
Dir
 
Spd
km/h
Gust
km/h
Spd
kts
Gust
kts
15/11:30pm 11.5 9.7 10.9 96 0.3 ESE 11 15 6 8 1002.9 1001.8 0.0
15/11:00pm 11.8 9.7 11.0 95 0.4 SE 13 17 7 9 1003.3 1002.2 0.0
15/10:30pm 12.0 10.3 11.1 94 0.5 SE 11 17 6 9 1003.6 1002.5 0.0
15/10:00pm 12.3 9.8 10.9 91 0.7 SE 15 20 8 11 1003.6 1002.5 0.0
15/09:30pm 12.8 10.2 10.7 87 1.1 SE 15 20 8 11 1003.8 1002.7 0.0

Latest Capital City Observations: Canberra | Sydney | Melbourne | Brisbane | Adelaide | Perth | Hobart | Darwin

Other Formats:

Comma delimited format used in spreadsheet applications
http://www.bom.gov.au/fwo/IDS60901/IDS60901.94683.axf

JavaScript Object Notation format (JSON) in row-major order
http://www.bom.gov.au/fwo/IDS60901/IDS60901.94683.json